createdAt,value
2017-10-04T00:02:08.922Z,10.50
2017-10-04T00:04:38.021Z,10.55
2017-10-04T00:07:07.152Z,10.78
2017-10-04T00:09:35.483Z,10.75
2017-10-04T00:12:03.847Z,10.77
2017-10-04T00:14:32.184Z,10.84
2017-10-04T00:17:00.524Z,10.97
2017-10-04T00:19:28.888Z,10.68
2017-10-04T00:21:57.226Z,10.84
2017-10-04T00:24:25.599Z,10.70
2017-10-04T00:26:53.927Z,10.95
2017-10-04T00:29:23.027Z,10.68
2017-10-04T00:31:51.391Z,10.91
2017-10-04T00:34:19.723Z,10.58
2017-10-04T00:36:48.853Z,10.85
2017-10-04T00:39:17.196Z,10.87
2017-10-04T00:41:46.307Z,10.97
2017-10-04T00:44:15.431Z,11.08
2017-10-04T00:46:43.771Z,11.10
2017-10-04T00:49:12.905Z,11.06
2017-10-04T00:51:41.249Z,11.07
2017-10-04T00:54:10.368Z,11.01
2017-10-04T00:56:38.746Z,11.10
2017-10-04T00:59:07.086Z,11.16
2017-10-04T01:01:35.441Z,11.12
2017-10-04T01:04:03.775Z,10.97
2017-10-04T01:06:32.879Z,11.08
2017-10-04T01:09:02.007Z,11.04
2017-10-04T01:11:30.339Z,11.07
2017-10-04T01:13:59.476Z,11.00
2017-10-04T01:16:27.812Z,11.01
2017-10-04T01:18:56.182Z,11.09
2017-10-04T01:21:24.520Z,10.95
2017-10-04T01:23:52.865Z,11.09
2017-10-04T01:26:21.982Z,11.07
2017-10-04T01:28:50.316Z,11.08
2017-10-04T01:31:18.681Z,11.06
2017-10-04T01:33:47.012Z,11.07
2017-10-04T01:36:16.141Z,11.01
2017-10-04T01:38:44.471Z,11.18
2017-10-04T01:41:12.808Z,11.28
2017-10-04T01:43:41.171Z,11.41
2017-10-04T01:46:09.499Z,11.47
2017-10-04T01:48:37.866Z,11.52
2017-10-04T01:51:06.204Z,11.37
2017-10-04T01:53:34.560Z,11.42
2017-10-04T01:56:03.667Z,11.47
2017-10-04T01:58:32.771Z,11.51
2017-10-04T02:01:01.905Z,11.40
2017-10-04T02:03:30.255Z,11.25
2017-10-04T02:05:58.622Z,11.22
2017-10-04T02:08:27.729Z,11.22
2017-10-04T02:10:56.831Z,11.13
2017-10-04T02:13:25.193Z,11.19
2017-10-04T02:15:54.296Z,11.29
2017-10-04T02:18:23.415Z,11.12
2017-10-04T02:20:51.755Z,11.17
2017-10-04T02:23:20.112Z,11.14
2017-10-04T02:25:48.479Z,11.31
2017-10-04T02:28:16.829Z,11.35
2017-10-04T02:30:45.200Z,11.36
2017-10-04T02:33:14.299Z,11.45
2017-10-04T02:35:43.448Z,11.43
2017-10-04T02:38:11.783Z,11.48
2017-10-04T02:40:40.121Z,11.50
2017-10-04T02:43:08.483Z,11.40
2017-10-04T02:45:36.816Z,11.37
2017-10-04T02:48:05.945Z,11.23
2017-10-04T02:50:34.279Z,11.21
2017-10-04T02:53:03.408Z,11.20
2017-10-04T02:55:31.748Z,11.11
2017-10-04T02:58:00.135Z,10.99
2017-10-04T03:00:28.471Z,10.84
2017-10-04T03:02:56.811Z,10.83
2017-10-04T03:05:25.929Z,10.78
2017-10-04T03:07:54.257Z,10.82
2017-10-04T03:10:22.615Z,10.80
2017-10-04T03:12:50.967Z,10.77
2017-10-04T03:15:19.799Z,10.83
2017-10-04T03:17:48.136Z,10.93
2017-10-04T03:20:16.468Z,10.85
2017-10-04T03:22:44.823Z,10.90
2017-10-04T03:25:13.158Z,10.86
2017-10-04T03:27:42.281Z,10.86
2017-10-04T03:30:10.617Z,10.80
2017-10-04T03:32:38.968Z,10.80
2017-10-04T03:35:07.332Z,10.85
2017-10-04T03:37:35.668Z,10.88
2017-10-04T03:40:04.806Z,10.79
2017-10-04T03:42:33.140Z,10.82
2017-10-04T03:45:01.481Z,10.78
2017-10-04T03:47:29.841Z,10.67
2017-10-04T03:49:58.171Z,10.72
2017-10-04T03:52:26.531Z,10.79
2017-10-04T03:54:54.871Z,10.70
2017-10-04T03:57:23.207Z,10.72
2017-10-04T03:59:51.573Z,10.68
2017-10-04T04:02:19.907Z,10.72
2017-10-04T04:04:49.138Z,10.78
2017-10-04T04:07:17.471Z,10.74
2017-10-04T04:09:46.585Z,10.85
2017-10-04T04:12:15.716Z,10.81
2017-10-04T04:14:44.047Z,10.82
2017-10-04T04:17:13.180Z,10.78
2017-10-04T04:19:41.516Z,10.78
2017-10-04T04:22:09.853Z,10.66
2017-10-04T04:24:38.206Z,10.71
2017-10-04T04:27:06.543Z,10.52
2017-10-04T04:29:34.907Z,10.63
2017-10-04T04:32:03.244Z,10.58
2017-10-04T04:34:32.351Z,10.62
2017-10-04T04:37:00.712Z,10.49
2017-10-04T04:39:29.821Z,10.58
2017-10-04T04:41:58.954Z,10.46
2017-10-04T04:44:27.288Z,10.43
2017-10-04T04:46:56.424Z,10.36
2017-10-04T04:49:24.760Z,10.18
2017-10-04T04:51:53.871Z,10.34
2017-10-04T04:54:23.007Z,10.32
2017-10-04T04:56:51.343Z,10.42
2017-10-04T04:59:21.752Z,10.47
2017-10-04T05:01:50.096Z,10.42
2017-10-04T05:04:18.433Z,10.41
2017-10-04T05:06:47.568Z,10.60
2017-10-04T05:09:15.901Z,10.52
2017-10-04T05:11:44.260Z,10.59
2017-10-04T05:14:12.597Z,10.65
2017-10-04T05:16:40.927Z,10.55
2017-10-04T05:19:09.289Z,10.58
2017-10-04T05:21:37.620Z,10.43
2017-10-04T05:24:06.753Z,10.42
2017-10-04T05:26:35.089Z,10.49
2017-10-04T05:29:04.188Z,10.55
2017-10-04T05:31:33.324Z,10.67
2017-10-04T05:34:01.659Z,10.85
2017-10-04T05:36:30.789Z,10.61
2017-10-04T05:38:59.123Z,10.62
2017-10-04T05:41:28.351Z,10.64
2017-10-04T05:43:57.466Z,10.51
2017-10-04T05:46:25.804Z,10.53
2017-10-04T05:48:54.164Z,10.77
2017-10-04T05:51:22.499Z,10.74
2017-10-04T05:53:50.859Z,10.59
2017-10-04T05:56:20.256Z,10.53
2017-10-04T05:58:48.595Z,10.59
2017-10-04T06:01:16.949Z,10.79
2017-10-04T06:03:45.289Z,10.70
2017-10-04T06:06:13.647Z,10.72
2017-10-04T06:08:41.979Z,10.68
2017-10-04T06:11:11.072Z,10.96
2017-10-04T06:13:40.202Z,10.82
2017-10-04T06:16:08.535Z,10.91
2017-10-04T06:18:37.666Z,10.95
2017-10-04T06:21:05.992Z,10.90
2017-10-04T06:23:34.325Z,11.00
2017-10-04T06:26:02.680Z,11.03
2017-10-04T06:28:31.775Z,10.98
2017-10-04T06:31:00.905Z,10.80
2017-10-04T06:33:29.236Z,10.95
2017-10-04T06:35:57.573Z,11.02
2017-10-04T06:38:25.932Z,10.86
2017-10-04T06:40:55.024Z,10.95
2017-10-04T06:43:24.147Z,10.91
2017-10-04T06:45:52.485Z,10.98
2017-10-04T06:48:20.814Z,10.87
2017-10-04T06:50:49.171Z,10.93
2017-10-04T06:53:17.507Z,10.78
2017-10-04T06:55:45.872Z,10.99
2017-10-04T06:58:14.206Z,11.01
2017-10-04T07:00:43.308Z,11.20
2017-10-04T07:03:11.667Z,11.36
2017-10-04T07:05:40.783Z,11.56
2017-10-04T07:08:09.912Z,11.45
2017-10-04T07:10:38.252Z,11.46
2017-10-04T07:13:07.348Z,11.31
2017-10-04T07:15:36.471Z,11.49
2017-10-04T07:18:04.802Z,11.58
2017-10-04T07:20:33.163Z,11.71
2017-10-04T07:23:01.495Z,11.54
2017-10-04T07:25:30.591Z,11.64
2017-10-04T07:27:59.721Z,11.68
2017-10-04T07:30:28.055Z,11.60
2017-10-04T07:32:57.193Z,11.65
2017-10-04T07:35:25.527Z,11.71
2017-10-04T07:37:53.857Z,11.84
2017-10-04T07:40:22.211Z,11.93
2017-10-04T07:42:51.307Z,11.93
2017-10-04T07:45:20.438Z,12.02
2017-10-04T07:47:48.795Z,12.05
2017-10-04T07:50:17.124Z,12.04
2017-10-04T07:52:45.471Z,12.20
2017-10-04T07:55:13.837Z,12.05
2017-10-04T07:57:42.172Z,12.30
2017-10-04T08:00:10.514Z,12.31
2017-10-04T08:02:38.889Z,11.98
2017-10-04T08:05:07.224Z,11.99
2017-10-04T08:07:35.594Z,12.02
2017-10-04T08:10:03.936Z,12.03
2017-10-04T08:12:32.287Z,12.41
2017-10-04T08:15:01.386Z,12.63
2017-10-04T08:17:30.512Z,12.72
2017-10-04T08:19:58.847Z,12.89
2017-10-04T08:22:27.955Z,13.06
2017-10-04T08:24:57.079Z,13.11
2017-10-04T08:27:25.411Z,13.12
2017-10-04T08:29:54.669Z,12.95
2017-10-04T08:32:23.004Z,13.09
2017-10-04T08:34:52.109Z,13.18
2017-10-04T08:37:21.231Z,13.15
2017-10-04T08:39:49.560Z,13.30
2017-10-04T08:42:17.924Z,13.36
2017-10-04T08:44:46.266Z,13.35
2017-10-04T08:47:32.396Z,13.33
2017-10-04T08:50:00.733Z,13.17
2017-10-04T08:52:29.912Z,12.57
2017-10-04T08:54:59.051Z,12.84
2017-10-04T08:57:27.383Z,12.75
2017-10-04T08:59:55.752Z,12.71
2017-10-04T09:02:24.091Z,12.51
2017-10-04T09:18:33.342Z,13.18
2017-10-04T09:21:01.685Z,12.93
2017-10-04T09:23:30.780Z,12.85
2017-10-04T09:25:59.899Z,13.13
2017-10-04T09:28:28.229Z,12.95
2017-10-04T09:30:56.587Z,13.01
2017-10-04T09:33:24.931Z,13.20
2017-10-04T09:35:54.036Z,13.10
2017-10-04T09:38:22.400Z,13.41
2017-10-04T09:40:51.506Z,13.13
2017-10-04T09:43:19.870Z,12.94
2017-10-04T09:45:48.972Z,13.06
2017-10-04T09:48:18.071Z,13.21
2017-10-04T09:50:47.210Z,13.00
2017-10-04T09:53:15.539Z,13.17
2017-10-04T09:55:43.902Z,13.11
2017-10-04T09:58:12.238Z,13.03
2017-10-04T10:00:40.568Z,13.22
2017-10-04T10:03:08.928Z,13.34
2017-10-04T10:05:37.284Z,13.15
2017-10-04T10:08:05.646Z,13.29
2017-10-04T10:10:33.986Z,13.44
2017-10-04T10:13:02.325Z,13.28
2017-10-04T10:15:30.679Z,13.18
2017-10-04T10:17:59.775Z,13.39
2017-10-04T10:20:28.904Z,13.37
2017-10-04T10:22:57.241Z,13.62
2017-10-04T10:25:26.355Z,13.88
2017-10-04T10:27:55.480Z,13.50
2017-10-04T10:30:23.814Z,13.51
2017-10-04T10:32:52.947Z,13.63
2017-10-04T10:35:21.275Z,13.65
2017-10-04T10:37:49.619Z,13.39
2017-10-04T10:40:17.978Z,13.64
2017-10-04T10:42:46.335Z,13.84
2017-10-04T10:45:15.463Z,13.80
2017-10-04T10:47:43.797Z,13.84
2017-10-04T10:50:12.128Z,13.82
2017-10-04T10:52:40.495Z,13.84
2017-10-04T10:55:08.832Z,14.07
2017-10-04T10:57:37.192Z,14.01
2017-10-04T11:00:05.528Z,14.12
2017-10-04T11:02:34.624Z,13.80
2017-10-04T11:05:03.766Z,13.96
2017-10-04T11:07:32.104Z,13.87
2017-10-04T11:10:01.256Z,13.83
2017-10-04T11:12:29.600Z,13.69
2017-10-04T11:14:57.955Z,13.77
2017-10-04T11:17:27.060Z,13.58
2017-10-04T11:19:56.159Z,13.90
2017-10-04T11:22:25.299Z,13.94
2017-10-04T11:24:53.631Z,14.09
2017-10-04T11:27:22.777Z,14.04
2017-10-04T11:29:51.116Z,14.05
2017-10-04T11:32:19.524Z,14.01
2017-10-04T11:34:47.935Z,13.98
2017-10-04T11:37:16.267Z,14.08
2017-10-04T11:39:44.645Z,13.99
2017-10-04T11:42:13.752Z,13.93
2017-10-04T11:44:42.117Z,14.03
2017-10-04T11:47:11.224Z,14.16
2017-10-04T11:49:39.559Z,14.15
2017-10-04T11:52:07.927Z,13.90
2017-10-04T11:54:36.270Z,14.18
2017-10-04T11:57:04.631Z,14.23
2017-10-04T11:59:33.753Z,14.60
2017-10-04T12:02:02.112Z,14.65
2017-10-04T12:04:31.216Z,14.84
2017-10-04T12:07:00.339Z,14.53
2017-10-04T12:09:28.671Z,14.44
2017-10-04T12:11:57.008Z,14.52
2017-10-04T12:14:25.368Z,14.59
2017-10-04T12:16:54.487Z,14.51
2017-10-04T12:19:22.843Z,14.80
2017-10-04T12:21:52.347Z,14.71
2017-10-04T12:24:20.703Z,14.62
2017-10-04T12:26:49.035Z,14.85
2017-10-04T12:29:17.400Z,14.70
2017-10-04T12:31:45.736Z,15.03
2017-10-04T12:34:14.070Z,15.11
2017-10-04T12:36:42.427Z,14.85
2017-10-04T12:39:10.760Z,14.80
2017-10-04T12:41:39.120Z,14.59
2017-10-04T12:44:07.460Z,14.70
2017-10-04T12:46:36.560Z,14.17
2017-10-04T12:49:05.696Z,14.44
2017-10-04T12:51:34.034Z,14.54
2017-10-04T12:54:03.156Z,14.37
2017-10-04T12:56:31.492Z,14.42
2017-10-04T12:58:59.843Z,14.19
2017-10-04T13:01:28.184Z,14.30
2017-10-04T13:03:56.522Z,14.45
2017-10-04T13:06:24.900Z,14.55
2017-10-04T13:08:53.249Z,14.48
2017-10-04T13:11:21.631Z,14.31
2017-10-04T13:13:49.965Z,14.40
2017-10-04T13:16:19.101Z,13.98
2017-10-04T13:18:47.436Z,14.15
2017-10-04T13:21:15.771Z,14.02
2017-10-04T13:23:44.131Z,14.09
2017-10-04T13:26:12.460Z,14.13
2017-10-04T13:28:40.819Z,14.17
2017-10-04T13:31:09.151Z,14.03
2017-10-04T13:33:38.260Z,14.19
2017-10-04T13:36:07.382Z,14.10
2017-10-04T13:38:35.720Z,13.99
2017-10-04T13:41:04.843Z,14.20
2017-10-04T13:43:33.183Z,14.35
2017-10-04T13:46:01.523Z,14.49
2017-10-04T13:48:29.904Z,14.47
2017-10-04T13:50:58.251Z,14.55
2017-10-04T13:53:27.388Z,14.51
2017-10-04T13:55:55.731Z,14.44
2017-10-04T13:58:24.096Z,14.43
2017-10-04T14:00:53.196Z,14.23
2017-10-04T14:03:22.327Z,14.31
2017-10-04T14:05:50.662Z,13.94
2017-10-04T14:08:19.019Z,14.04
2017-10-04T14:10:47.383Z,14.54
2017-10-04T14:13:15.731Z,14.55
2017-10-04T14:15:44.858Z,14.51
2017-10-04T14:18:13.208Z,14.56
2017-10-04T14:20:42.324Z,14.42
2017-10-04T14:23:10.687Z,14.49
2017-10-04T14:25:39.796Z,14.31
2017-10-04T14:28:08.919Z,14.51
2017-10-04T14:30:37.261Z,14.47
2017-10-04T14:33:06.368Z,14.38
2017-10-04T14:35:34.776Z,14.34
2017-10-04T14:38:03.113Z,14.42
2017-10-04T14:40:32.239Z,14.22
2017-10-04T14:43:00.587Z,14.25
2017-10-04T14:45:29.716Z,14.19
2017-10-04T14:47:58.063Z,14.08
2017-10-04T14:50:27.207Z,14.39
2017-10-04T14:52:55.548Z,14.33
2017-10-04T14:55:24.647Z,14.26
2017-10-04T14:57:53.780Z,13.94
2017-10-04T15:00:22.127Z,13.93
2017-10-04T15:02:51.263Z,14.01
2017-10-04T15:05:19.595Z,13.99
2017-10-04T15:07:48.727Z,14.03
2017-10-04T15:10:17.112Z,13.91
2017-10-04T15:12:45.521Z,14.04
2017-10-04T15:15:13.860Z,13.88
2017-10-04T15:17:42.236Z,13.98
2017-10-04T15:20:11.344Z,14.06
2017-10-04T15:22:39.679Z,14.00
2017-10-04T15:25:08.049Z,13.90
2017-10-04T15:27:36.384Z,13.78
2017-10-04T15:30:06.324Z,13.68
2017-10-04T15:32:34.668Z,13.72
2017-10-04T15:35:03.788Z,13.87
2017-10-04T15:37:32.145Z,13.51
2017-10-04T15:40:01.247Z,13.60
2017-10-04T15:42:30.370Z,13.71
2017-10-04T15:44:58.706Z,13.54
2017-10-04T15:47:27.064Z,13.62
2017-10-04T15:49:55.415Z,13.53
2017-10-04T15:52:23.749Z,13.54
2017-10-04T15:54:52.117Z,13.63
2017-10-04T15:57:20.457Z,13.57
2017-10-04T15:59:48.816Z,13.58
2017-10-04T16:02:17.147Z,13.57
2017-10-04T16:04:45.516Z,13.49
2017-10-04T16:07:13.864Z,13.20
2017-10-04T16:09:42.204Z,13.46
2017-10-04T16:12:10.556Z,13.47
2017-10-04T16:14:38.892Z,13.32
2017-10-04T16:17:08.023Z,13.44
2017-10-04T16:19:36.372Z,12.96
2017-10-04T16:22:06.388Z,13.35
2017-10-04T16:24:35.513Z,13.32
2017-10-04T16:27:03.850Z,13.27
2017-10-04T16:29:32.979Z,13.13
2017-10-04T16:32:01.317Z,13.19
2017-10-04T16:34:29.660Z,13.21
2017-10-04T16:36:58.968Z,13.11
2017-10-04T16:39:27.308Z,13.22
2017-10-04T16:41:56.456Z,13.23
2017-10-04T16:44:24.822Z,13.16
2017-10-04T16:46:53.159Z,12.75
2017-10-04T16:49:22.288Z,12.71
2017-10-04T16:51:50.627Z,12.90
2017-10-04T16:54:19.761Z,12.92
2017-10-04T16:56:48.096Z,12.86
2017-10-04T16:59:16.436Z,12.97
2017-10-04T17:01:44.794Z,12.84
2017-10-04T17:04:13.136Z,12.70
2017-10-04T17:06:41.501Z,12.86
2017-10-04T17:09:09.831Z,12.56
2017-10-04T17:11:38.204Z,12.80
2017-10-04T17:14:08.543Z,12.76
2017-10-04T17:16:36.880Z,12.77
2017-10-04T17:19:05.239Z,12.76
2017-10-04T17:21:33.583Z,12.78
2017-10-04T17:24:01.945Z,12.86
2017-10-04T17:26:31.041Z,12.68
2017-10-04T17:29:00.139Z,12.63
2017-10-04T17:31:29.263Z,12.67
2017-10-04T17:33:57.599Z,12.61
2017-10-04T17:36:25.948Z,12.58
2017-10-04T17:38:54.292Z,12.75
2017-10-04T17:41:22.664Z,12.68
2017-10-04T17:43:51.020Z,12.63
2017-10-04T17:46:19.360Z,12.54
2017-10-04T17:48:47.721Z,12.47
2017-10-04T17:51:16.078Z,12.55
2017-10-04T17:53:45.218Z,12.42
2017-10-04T17:56:13.565Z,12.36
2017-10-04T17:58:43.494Z,12.53
2017-10-04T18:01:11.868Z,12.56
2017-10-04T18:03:40.262Z,12.57
2017-10-04T18:06:08.624Z,12.68
2017-10-04T18:08:37.724Z,12.55
2017-10-04T18:11:06.064Z,12.45
2017-10-04T18:13:34.426Z,12.10
2017-10-04T18:16:02.755Z,12.43
2017-10-04T18:18:31.877Z,12.44
2017-10-04T18:21:00.214Z,12.49
2017-10-04T18:23:28.561Z,12.36
2017-10-04T18:25:56.920Z,12.42
2017-10-04T18:28:25.256Z,12.56
2017-10-04T18:30:53.619Z,12.57
2017-10-04T18:33:22.044Z,12.75
2017-10-04T18:35:51.145Z,12.61
2017-10-04T18:38:19.536Z,12.63
2017-10-04T18:40:47.868Z,12.89
2017-10-04T18:43:16.227Z,12.70
2017-10-04T18:45:44.627Z,12.45
2017-10-04T18:48:12.963Z,12.80
2017-10-04T18:50:41.315Z,12.67
2017-10-04T18:53:10.423Z,12.67
2017-10-04T18:55:39.559Z,12.65
2017-10-04T18:58:07.890Z,12.78
2017-10-04T19:00:37.055Z,12.61
2017-10-04T19:03:05.422Z,12.56
2017-10-04T19:05:33.759Z,12.80
2017-10-04T19:08:02.984Z,12.69
2017-10-04T19:10:31.312Z,12.55
2017-10-04T19:12:59.684Z,12.55
2017-10-04T19:15:28.047Z,12.49
2017-10-04T19:17:57.143Z,12.54
2017-10-04T19:20:25.505Z,12.55
2017-10-04T19:22:53.833Z,12.48
2017-10-04T19:25:22.185Z,12.50
2017-10-04T19:27:50.552Z,12.51
2017-10-04T19:30:18.884Z,12.64
2017-10-04T19:32:48.026Z,12.43
2017-10-04T19:35:16.363Z,12.20
2017-10-04T19:37:45.467Z,12.20
2017-10-04T19:40:14.600Z,12.41
2017-10-04T19:42:42.936Z,12.37
2017-10-04T19:45:11.295Z,12.37
2017-10-04T19:47:40.481Z,12.14
2017-10-04T19:50:09.169Z,12.57
2017-10-04T19:52:38.091Z,12.36
2017-10-04T19:55:07.220Z,12.54
2017-10-04T19:57:36.487Z,12.56
2017-10-04T20:00:04.821Z,12.53
2017-10-04T20:02:33.830Z,12.55
2017-10-04T20:05:02.317Z,12.69
2017-10-04T20:07:30.729Z,12.72
2017-10-04T20:09:59.097Z,12.62
2017-10-04T20:12:27.440Z,12.54
2017-10-04T20:14:55.800Z,12.65
2017-10-04T20:17:24.895Z,12.43
2017-10-04T20:19:54.040Z,12.53
2017-10-04T20:22:22.386Z,12.47
2017-10-04T20:24:50.749Z,12.44
2017-10-04T20:27:19.894Z,12.53
2017-10-04T20:29:48.252Z,12.72
2017-10-04T20:32:18.293Z,12.62
2017-10-04T20:34:46.631Z,12.54
2017-10-04T20:37:15.732Z,12.66
2017-10-04T20:39:44.862Z,12.64
2017-10-04T20:42:13.199Z,12.71
2017-10-04T20:44:42.327Z,12.76
2017-10-04T20:47:10.664Z,12.57
2017-10-04T20:49:39.004Z,12.51
2017-10-04T20:52:07.595Z,12.54
2017-10-04T20:54:35.962Z,12.54
2017-10-04T20:57:04.315Z,12.42
2017-10-04T20:59:33.420Z,12.42
2017-10-04T21:02:01.756Z,12.46
2017-10-04T21:04:30.111Z,12.55
2017-10-04T21:06:58.453Z,12.48
2017-10-04T21:09:27.588Z,12.50
2017-10-04T21:11:55.921Z,12.64
2017-10-04T21:14:25.028Z,12.38
2017-10-04T21:16:54.147Z,12.24
2017-10-04T21:19:22.481Z,12.37
2017-10-04T21:21:50.951Z,12.34
2017-10-04T21:24:20.290Z,12.44
2017-10-04T21:26:49.408Z,12.57
2017-10-04T21:29:17.929Z,12.36
2017-10-04T21:31:46.347Z,12.43
2017-10-04T21:34:14.804Z,12.59
2017-10-04T21:36:43.163Z,12.52
2017-10-04T21:39:11.499Z,12.60
2017-10-04T21:41:40.861Z,12.50
2017-10-04T21:44:10.031Z,12.36
2017-10-04T21:46:38.364Z,12.45
2017-10-04T21:49:07.495Z,12.49
2017-10-04T21:51:35.832Z,12.70
2017-10-04T21:54:04.188Z,12.73
2017-10-04T21:56:32.527Z,12.78
2017-10-04T21:59:01.623Z,12.58
2017-10-04T22:01:30.752Z,12.67
2017-10-04T22:03:59.091Z,12.72
2017-10-04T22:06:28.224Z,12.71
2017-10-04T22:08:56.557Z,12.63
2017-10-04T22:11:24.939Z,12.62
2017-10-04T22:13:53.306Z,12.73
2017-10-04T22:16:21.652Z,12.78
2017-10-04T22:18:50.007Z,12.68
2017-10-04T22:21:18.343Z,12.61
2017-10-04T22:23:46.696Z,12.72
2017-10-04T22:26:15.051Z,12.73
2017-10-04T22:28:43.388Z,12.68
2017-10-04T22:31:11.745Z,12.71
2017-10-04T22:33:40.083Z,12.80
2017-10-04T22:36:09.227Z,12.86
2017-10-04T22:38:37.566Z,12.86
2017-10-04T22:41:05.904Z,12.84
2017-10-04T22:43:34.264Z,12.70
2017-10-04T22:46:02.638Z,12.78
2017-10-04T22:48:30.960Z,12.85
2017-10-04T22:50:59.324Z,12.67
2017-10-04T22:53:27.659Z,12.80
2017-10-04T22:55:55.992Z,12.67
2017-10-04T22:58:25.354Z,12.66
2017-10-04T23:00:53.743Z,12.71
2017-10-04T23:03:22.108Z,12.77
2017-10-04T23:05:50.443Z,12.78
2017-10-04T23:08:18.803Z,12.80
2017-10-04T23:10:47.139Z,12.75
2017-10-04T23:13:15.470Z,12.52
2017-10-04T23:15:43.845Z,12.74
2017-10-04T23:18:12.183Z,12.75
2017-10-04T23:20:40.546Z,12.73
2017-10-04T23:23:09.639Z,12.85
2017-10-04T23:25:38.740Z,12.55
2017-10-04T23:28:07.866Z,12.60
2017-10-04T23:30:36.198Z,12.65
2017-10-04T23:33:04.551Z,12.50
2017-10-04T23:35:32.887Z,12.41
2017-10-04T23:38:02.027Z,12.46
2017-10-04T23:40:30.367Z,12.44
2017-10-04T23:42:59.460Z,12.60
2017-10-04T23:45:28.591Z,12.68
2017-10-04T23:47:56.919Z,12.72
2017-10-04T23:50:26.525Z,12.54
2017-10-04T23:52:54.860Z,12.51
2017-10-04T23:55:23.223Z,12.51
2017-10-04T23:57:51.590Z,12.48
